sensor_id;sensor_type;location;lat;lon;timestamp;P1;durP1;ratioP1;P2;durP2;ratioP2
45792;SDS011;31495;42.740;22.908;2024-01-11T00:00:41;22.65;;;10.07;;
45792;SDS011;31495;42.740;22.908;2024-01-11T00:01:45;23.58;;;10.25;;
45792;SDS011;31495;42.740;22.908;2024-01-11T00:02:45;22.63;;;9.88;;
45792;SDS011;31495;42.740;22.908;2024-01-11T00:03:44;24.50;;;12.15;;
45792;SDS011;31495;42.740;22.908;2024-01-11T00:04:44;28.63;;;12.80;;
45792;SDS011;31495;42.740;22.908;2024-01-11T00:05:43;24.02;;;11.05;;
45792;SDS011;31495;42.740;22.908;2024-01-11T00:06:43;24.20;;;10.75;;
45792;SDS011;31495;42.740;22.908;2024-01-11T00:07:43;21.58;;;12.05;;
45792;SDS011;31495;42.740;22.908;2024-01-11T00:08:43;26.27;;;10.63;;
45792;SDS011;31495;42.740;22.908;2024-01-11T00:09:42;24.10;;;11.98;;
45792;SDS011;31495;42.740;22.908;2024-01-11T00:10:43;24.13;;;11.55;;
45792;SDS011;31495;42.740;22.908;2024-01-11T00:11:42;23.75;;;11.65;;
45792;SDS011;31495;42.740;22.908;2024-01-11T00:12:42;22.95;;;11.02;;
45792;SDS011;31495;42.740;22.908;2024-01-11T00:13:43;23.45;;;11.30;;
45792;SDS011;31495;42.740;22.908;2024-01-11T00:14:43;21.88;;;10.40;;
45792;SDS011;31495;42.740;22.908;2024-01-11T00:15:43;22.20;;;11.68;;
45792;SDS011;31495;42.740;22.908;2024-01-11T00:16:43;24.00;;;11.60;;
45792;SDS011;31495;42.740;22.908;2024-01-11T00:17:43;24.25;;;11.32;;
45792;SDS011;31495;42.740;22.908;2024-01-11T00:18:43;23.60;;;12.82;;
45792;SDS011;31495;42.740;22.908;2024-01-11T00:19:44;21.95;;;10.75;;
45792;SDS011;31495;42.740;22.908;2024-01-11T00:20:43;26.80;;;12.50;;
45792;SDS011;31495;42.740;22.908;2024-01-11T00:21:43;23.83;;;12.50;;
45792;SDS011;31495;42.740;22.908;2024-01-11T00:22:43;23.80;;;12.10;;
45792;SDS011;31495;42.740;22.908;2024-01-11T00:23:43;29.17;;;13.23;;
45792;SDS011;31495;42.740;22.908;2024-01-11T00:24:44;29.67;;;12.90;;
45792;SDS011;31495;42.740;22.908;2024-01-11T00:25:44;23.52;;;11.07;;
45792;SDS011;31495;42.740;22.908;2024-01-11T00:26:43;23.58;;;11.35;;
45792;SDS011;31495;42.740;22.908;2024-01-11T00:27:44;26.33;;;13.13;;
45792;SDS011;31495;42.740;22.908;2024-01-11T00:28:44;36.47;;;16.27;;
45792;SDS011;31495;42.740;22.908;2024-01-11T00:29:44;36.27;;;18.90;;
45792;SDS011;31495;42.740;22.908;2024-01-11T00:30:44;36.97;;;18.42;;
45792;SDS011;31495;42.740;22.908;2024-01-11T00:31:44;33.28;;;16.95;;
45792;SDS011;31495;42.740;22.908;2024-01-11T00:32:44;35.50;;;17.05;;
45792;SDS011;31495;42.740;22.908;2024-01-11T00:33:44;33.70;;;17.48;;
45792;SDS011;31495;42.740;22.908;2024-01-11T00:34:44;39.15;;;20.80;;
45792;SDS011;31495;42.740;22.908;2024-01-11T00:35:45;41.05;;;18.15;;
45792;SDS011;31495;42.740;22.908;2024-01-11T00:36:44;31.48;;;15.70;;
45792;SDS011;31495;42.740;22.908;2024-01-11T00:37:45;38.28;;;18.65;;
45792;SDS011;31495;42.740;22.908;2024-01-11T00:38:45;38.95;;;18.52;;
45792;SDS011;31495;42.740;22.908;2024-01-11T00:39:45;35.45;;;19.05;;
45792;SDS011;31495;42.740;22.908;2024-01-11T00:40:45;31.80;;;17.65;;
45792;SDS011;31495;42.740;22.908;2024-01-11T00:41:45;35.65;;;19.67;;
45792;SDS011;31495;42.740;22.908;2024-01-11T00:42:45;28.70;;;17.15;;
45792;SDS011;31495;42.740;22.908;2024-01-11T00:43:45;33.88;;;18.70;;
45792;SDS011;31495;42.740;22.908;2024-01-11T00:44:45;35.58;;;17.35;;
45792;SDS011;31495;42.740;22.908;2024-01-11T00:45:45;36.33;;;17.63;;
45792;SDS011;31495;42.740;22.908;2024-01-11T00:46:45;34.83;;;17.48;;
45792;SDS011;31495;42.740;22.908;2024-01-11T00:47:45;31.02;;;18.02;;
45792;SDS011;31495;42.740;22.908;2024-01-11T00:48:46;38.15;;;17.83;;
45792;SDS011;31495;42.740;22.908;2024-01-11T00:49:46;37.90;;;18.00;;
45792;SDS011;31495;42.740;22.908;2024-01-11T00:50:46;32.83;;;16.95;;
45792;SDS011;31495;42.740;22.908;2024-01-11T00:51:46;31.27;;;17.70;;
45792;SDS011;31495;42.740;22.908;2024-01-11T00:52:46;32.63;;;16.48;;
45792;SDS011;31495;42.740;22.908;2024-01-11T00:53:46;38.92;;;17.42;;
45792;SDS011;31495;42.740;22.908;2024-01-11T00:54:46;40.30;;;20.00;;
45792;SDS011;31495;42.740;22.908;2024-01-11T00:55:46;34.60;;;16.63;;
45792;SDS011;31495;42.740;22.908;2024-01-11T00:56:47;33.58;;;15.70;;
45792;SDS011;31495;42.740;22.908;2024-01-11T00:57:46;30.00;;;15.32;;
45792;SDS011;31495;42.740;22.908;2024-01-11T00:58:47;29.50;;;13.20;;
45792;SDS011;31495;42.740;22.908;2024-01-11T00:59:47;31.58;;;13.95;;
45792;SDS011;31495;42.740;22.908;2024-01-11T01:00:47;34.22;;;14.15;;
45792;SDS011;31495;42.740;22.908;2024-01-11T01:01:47;27.20;;;14.13;;
45792;SDS011;31495;42.740;22.908;2024-01-11T01:03:47;27.92;;;11.30;;
45792;SDS011;31495;42.740;22.908;2024-01-11T01:04:47;26.92;;;11.77;;
45792;SDS011;31495;42.740;22.908;2024-01-11T01:05:47;25.92;;;11.52;;
45792;SDS011;31495;42.740;22.908;2024-01-11T01:06:47;35.75;;;15.90;;
45792;SDS011;31495;42.740;22.908;2024-01-11T01:07:47;29.52;;;14.15;;
45792;SDS011;31495;42.740;22.908;2024-01-11T01:08:47;35.30;;;16.30;;
45792;SDS011;31495;42.740;22.908;2024-01-11T01:09:47;37.75;;;16.45;;
45792;SDS011;31495;42.740;22.908;2024-01-11T01:10:48;38.55;;;17.75;;
45792;SDS011;31495;42.740;22.908;2024-01-11T01:11:48;35.45;;;16.05;;
45792;SDS011;31495;42.740;22.908;2024-01-11T01:12:48;35.42;;;16.65;;
45792;SDS011;31495;42.740;22.908;2024-01-11T01:13:48;30.02;;;13.45;;
45792;SDS011;31495;42.740;22.908;2024-01-11T01:14:48;30.20;;;12.13;;
45792;SDS011;31495;42.740;22.908;2024-01-11T01:15:48;23.63;;;10.02;;
45792;SDS011;31495;42.740;22.908;2024-01-11T01:16:48;18.88;;;9.05;;
45792;SDS011;31495;42.740;22.908;2024-01-11T01:17:48;21.83;;;9.63;;
45792;SDS011;31495;42.740;22.908;2024-01-11T01:18:48;21.13;;;9.02;;
45792;SDS011;31495;42.740;22.908;2024-01-11T01:19:48;21.70;;;8.60;;
45792;SDS011;31495;42.740;22.908;2024-01-11T01:20:48;21.25;;;9.90;;
45792;SDS011;31495;42.740;22.908;2024-01-11T01:21:48;25.23;;;10.25;;
45792;SDS011;31495;42.740;22.908;2024-01-11T01:22:49;20.23;;;9.60;;
45792;SDS011;31495;42.740;22.908;2024-01-11T01:23:49;23.92;;;11.02;;
45792;SDS011;31495;42.740;22.908;2024-01-11T01:24:49;28.58;;;13.23;;
45792;SDS011;31495;42.740;22.908;2024-01-11T01:25:49;26.08;;;11.80;;
45792;SDS011;31495;42.740;22.908;2024-01-11T01:26:48;31.08;;;13.32;;
45792;SDS011;31495;42.740;22.908;2024-01-11T01:27:49;20.23;;;11.52;;
45792;SDS011;31495;42.740;22.908;2024-01-11T01:28:49;31.50;;;13.43;;
45792;SDS011;31495;42.740;22.908;2024-01-11T01:29:49;32.28;;;14.27;;
45792;SDS011;31495;42.740;22.908;2024-01-11T01:30:49;26.30;;;12.45;;
45792;SDS011;31495;42.740;22.908;2024-01-11T01:31:49;27.50;;;12.77;;
45792;SDS011;31495;42.740;22.908;2024-01-11T01:32:50;27.90;;;13.70;;
45792;SDS011;31495;42.740;22.908;2024-01-11T01:33:49;26.95;;;11.93;;
45792;SDS011;31495;42.740;22.908;2024-01-11T01:34:50;31.02;;;14.73;;
45792;SDS011;31495;42.740;22.908;2024-01-11T01:35:50;29.83;;;15.57;;
45792;SDS011;31495;42.740;22.908;2024-01-11T01:36:50;31.52;;;15.05;;
45792;SDS011;31495;42.740;22.908;2024-01-11T01:37:50;30.40;;;14.93;;
45792;SDS011;31495;42.740;22.908;2024-01-11T01:38:50;30.05;;;15.95;;
45792;SDS011;31495;42.740;22.908;2024-01-11T01:39:50;29.70;;;14.75;;
45792;SDS011;31495;42.740;22.908;2024-01-11T01:40:50;25.45;;;13.60;;
45792;SDS011;31495;42.740;22.908;2024-01-11T01:41:50;25.23;;;12.50;;
45792;SDS011;31495;42.740;22.908;2024-01-11T01:42:50;30.65;;;12.20;;
45792;SDS011;31495;42.740;22.908;2024-01-11T01:43:57;39.25;;;12.95;;
45792;SDS011;31495;42.740;22.908;2024-01-11T01:44:56;37.20;;;13.85;;
45792;SDS011;31495;42.740;22.908;2024-01-11T01:45:56;53.20;;;17.65;;
45792;SDS011;31495;42.740;22.908;2024-01-11T01:46:56;64.10;;;26.35;;
45792;SDS011;31495;42.740;22.908;2024-01-11T01:47:56;79.97;;;34.00;;
45792;SDS011;31495;42.740;22.908;2024-01-11T01:48:56;52.45;;;20.38;;
45792;SDS011;31495;42.740;22.908;2024-01-11T01:49:57;28.40;;;11.30;;
45792;SDS011;31495;42.740;22.908;2024-01-11T01:50:56;24.63;;;10.95;;
45792;SDS011;31495;42.740;22.908;2024-01-11T01:51:56;30.58;;;8.75;;
45792;SDS011;31495;42.740;22.908;2024-01-11T01:52:55;15.40;;;7.85;;
45792;SDS011;31495;42.740;22.908;2024-01-11T01:53:55;17.20;;;7.90;;
45792;SDS011;31495;42.740;22.908;2024-01-11T01:55:56;19.33;;;9.10;;
45792;SDS011;31495;42.740;22.908;2024-01-11T01:56:56;26.20;;;10.35;;
45792;SDS011;31495;42.740;22.908;2024-01-11T01:57:57;31.30;;;14.70;;
45792;SDS011;31495;42.740;22.908;2024-01-11T01:58:58;36.78;;;16.90;;
45792;SDS011;31495;42.740;22.908;2024-01-11T02:00:00;34.05;;;15.70;;
45792;SDS011;31495;42.740;22.908;2024-01-11T02:01:01;24.73;;;11.35;;
45792;SDS011;31495;42.740;22.908;2024-01-11T02:02:01;26.30;;;12.68;;
45792;SDS011;31495;42.740;22.908;2024-01-11T02:03:01;27.80;;;12.60;;
45792;SDS011;31495;42.740;22.908;2024-01-11T02:04:01;22.60;;;9.40;;
45792;SDS011;31495;42.740;22.908;2024-01-11T02:05:01;20.50;;;9.52;;
45792;SDS011;31495;42.740;22.908;2024-01-11T02:06:02;24.80;;;9.52;;
45792;SDS011;31495;42.740;22.908;2024-01-11T02:07:04;19.50;;;7.07;;
45792;SDS011;31495;42.740;22.908;2024-01-11T02:09:07;24.63;;;7.95;;
45792;SDS011;31495;42.740;22.908;2024-01-11T02:10:09;17.35;;;7.93;;
45792;SDS011;31495;42.740;22.908;2024-01-11T02:11:09;16.88;;;8.77;;
45792;SDS011;31495;42.740;22.908;2024-01-11T02:12:10;18.00;;;6.10;;
45792;SDS011;31495;42.740;22.908;2024-01-11T02:13:10;10.52;;;5.32;;
45792;SDS011;31495;42.740;22.908;2024-01-11T02:14:12;13.20;;;5.38;;
45792;SDS011;31495;42.740;22.908;2024-01-11T02:15:11;18.85;;;7.22;;
45792;SDS011;31495;42.740;22.908;2024-01-11T02:16:11;12.93;;;6.75;;
45792;SDS011;31495;42.740;22.908;2024-01-11T02:18:12;11.32;;;5.15;;
45792;SDS011;31495;42.740;22.908;2024-01-11T02:19:20;13.32;;;6.18;;
45792;SDS011;31495;42.740;22.908;2024-01-11T02:20:26;11.70;;;5.10;;
45792;SDS011;31495;42.740;22.908;2024-01-11T02:21:26;13.52;;;6.72;;
45792;SDS011;31495;42.740;22.908;2024-01-11T02:23:28;29.30;;;8.80;;
45792;SDS011;31495;42.740;22.908;2024-01-11T02:24:29;13.73;;;7.70;;
45792;SDS011;31495;42.740;22.908;2024-01-11T02:25:29;19.33;;;8.40;;
45792;SDS011;31495;42.740;22.908;2024-01-11T02:26:28;21.67;;;9.60;;
45792;SDS011;31495;42.740;22.908;2024-01-11T02:27:28;25.45;;;11.40;;
45792;SDS011;31495;42.740;22.908;2024-01-11T02:28:27;22.50;;;11.50;;
45792;SDS011;31495;42.740;22.908;2024-01-11T02:29:27;24.73;;;11.73;;
45792;SDS011;31495;42.740;22.908;2024-01-11T02:30:27;28.10;;;11.95;;
45792;SDS011;31495;42.740;22.908;2024-01-11T02:31:26;29.00;;;10.93;;
45792;SDS011;31495;42.740;22.908;2024-01-11T02:32:26;21.25;;;9.93;;
45792;SDS011;31495;42.740;22.908;2024-01-11T02:33:26;26.08;;;9.90;;
45792;SDS011;31495;42.740;22.908;2024-01-11T02:34:26;27.50;;;11.18;;
45792;SDS011;31495;42.740;22.908;2024-01-11T02:35:26;24.08;;;12.00;;
45792;SDS011;31495;42.740;22.908;2024-01-11T02:36:26;20.95;;;9.75;;
45792;SDS011;31495;42.740;22.908;2024-01-11T02:37:26;22.15;;;10.43;;
45792;SDS011;31495;42.740;22.908;2024-01-11T02:38:25;28.90;;;11.52;;
45792;SDS011;31495;42.740;22.908;2024-01-11T02:39:25;39.65;;;15.10;;
45792;SDS011;31495;42.740;22.908;2024-01-11T02:40:25;38.47;;;13.77;;
45792;SDS011;31495;42.740;22.908;2024-01-11T02:41:25;27.00;;;12.77;;
45792;SDS011;31495;42.740;22.908;2024-01-11T02:42:26;31.17;;;13.00;;
45792;SDS011;31495;42.740;22.908;2024-01-11T02:43:25;35.35;;;14.35;;
45792;SDS011;31495;42.740;22.908;2024-01-11T02:44:26;31.50;;;14.88;;
45792;SDS011;31495;42.740;22.908;2024-01-11T02:45:26;23.83;;;11.05;;
45792;SDS011;31495;42.740;22.908;2024-01-11T02:46:26;22.63;;;9.85;;
45792;SDS011;31495;42.740;22.908;2024-01-11T02:47:26;22.42;;;9.57;;
45792;SDS011;31495;42.740;22.908;2024-01-11T02:48:29;20.60;;;8.55;;
45792;SDS011;31495;42.740;22.908;2024-01-11T02:49:29;15.20;;;7.88;;
45792;SDS011;31495;42.740;22.908;2024-01-11T02:50:28;19.73;;;8.95;;
45792;SDS011;31495;42.740;22.908;2024-01-11T02:51:28;15.00;;;7.18;;
45792;SDS011;31495;42.740;22.908;2024-01-11T02:52:27;15.20;;;7.47;;
45792;SDS011;31495;42.740;22.908;2024-01-11T02:53:27;14.73;;;7.32;;
45792;SDS011;31495;42.740;22.908;2024-01-11T02:54:27;14.95;;;6.80;;
45792;SDS011;31495;42.740;22.908;2024-01-11T02:55:27;14.88;;;7.32;;
45792;SDS011;31495;42.740;22.908;2024-01-11T02:56:27;31.65;;;11.80;;
45792;SDS011;31495;42.740;22.908;2024-01-11T02:57:27;28.17;;;11.75;;
45792;SDS011;31495;42.740;22.908;2024-01-11T02:58:27;22.58;;;9.20;;
45792;SDS011;31495;42.740;22.908;2024-01-11T02:59:27;29.42;;;12.10;;
45792;SDS011;31495;42.740;22.908;2024-01-11T03:00:27;26.90;;;12.30;;
45792;SDS011;31495;42.740;22.908;2024-01-11T03:01:27;19.05;;;8.75;;
45792;SDS011;31495;42.740;22.908;2024-01-11T03:02:27;26.58;;;10.43;;
45792;SDS011;31495;42.740;22.908;2024-01-11T03:03:27;21.17;;;10.20;;
45792;SDS011;31495;42.740;22.908;2024-01-11T03:04:27;22.35;;;9.25;;
45792;SDS011;31495;42.740;22.908;2024-01-11T03:05:27;18.85;;;9.75;;
45792;SDS011;31495;42.740;22.908;2024-01-11T03:06:27;18.63;;;8.65;;
45792;SDS011;31495;42.740;22.908;2024-01-11T03:07:27;17.48;;;8.50;;
45792;SDS011;31495;42.740;22.908;2024-01-11T03:08:28;16.13;;;7.95;;
45792;SDS011;31495;42.740;22.908;2024-01-11T03:09:28;18.50;;;7.47;;
45792;SDS011;31495;42.740;22.908;2024-01-11T03:10:28;16.60;;;8.48;;
45792;SDS011;31495;42.740;22.908;2024-01-11T03:11:28;24.80;;;10.25;;
45792;SDS011;31495;42.740;22.908;2024-01-11T03:12:28;23.13;;;10.40;;
45792;SDS011;31495;42.740;22.908;2024-01-11T03:13:28;23.50;;;9.80;;
45792;SDS011;31495;42.740;22.908;2024-01-11T03:14:28;18.58;;;9.38;;
45792;SDS011;31495;42.740;22.908;2024-01-11T03:15:28;16.17;;;8.27;;
45792;SDS011;31495;42.740;22.908;2024-01-11T03:16:28;16.95;;;7.55;;
45792;SDS011;31495;42.740;22.908;2024-01-11T03:17:28;21.48;;;8.75;;
45792;SDS011;31495;42.740;22.908;2024-01-11T03:18:28;18.42;;;9.15;;
45792;SDS011;31495;42.740;22.908;2024-01-11T03:19:30;20.50;;;9.65;;
45792;SDS011;31495;42.740;22.908;2024-01-11T03:20:30;22.92;;;10.20;;
45792;SDS011;31495;42.740;22.908;2024-01-11T03:21:29;20.23;;;9.90;;
45792;SDS011;31495;42.740;22.908;2024-01-11T03:22:29;32.28;;;13.85;;
45792;SDS011;31495;42.740;22.908;2024-01-11T03:23:29;37.47;;;16.70;;
45792;SDS011;31495;42.740;22.908;2024-01-11T03:24:29;36.85;;;16.23;;
45792;SDS011;31495;42.740;22.908;2024-01-11T03:25:31;33.70;;;17.23;;
45792;SDS011;31495;42.740;22.908;2024-01-11T03:26:31;28.27;;;14.80;;
45792;SDS011;31495;42.740;22.908;2024-01-11T03:27:31;30.20;;;14.55;;
45792;SDS011;31495;42.740;22.908;2024-01-11T03:28:31;26.90;;;12.88;;
45792;SDS011;31495;42.740;22.908;2024-01-11T03:29:31;21.48;;;11.02;;
45792;SDS011;31495;42.740;22.908;2024-01-11T03:30:30;15.93;;;7.10;;
45792;SDS011;31495;42.740;22.908;2024-01-11T03:31:30;15.00;;;8.30;;
45792;SDS011;31495;42.740;22.908;2024-01-11T03:32:30;14.93;;;7.03;;
45792;SDS011;31495;42.740;22.908;2024-01-11T03:33:30;10.95;;;6.53;;
45792;SDS011;31495;42.740;22.908;2024-01-11T03:34:30;15.50;;;6.93;;
45792;SDS011;31495;42.740;22.908;2024-01-11T03:35:30;15.93;;;7.47;;
45792;SDS011;31495;42.740;22.908;2024-01-11T03:36:30;15.27;;;7.00;;
45792;SDS011;31495;42.740;22.908;2024-01-11T03:37:30;14.13;;;6.95;;
45792;SDS011;31495;42.740;22.908;2024-01-11T03:38:30;15.60;;;7.43;;
45792;SDS011;31495;42.740;22.908;2024-01-11T03:39:30;20.70;;;8.88;;
45792;SDS011;31495;42.740;22.908;2024-01-11T03:40:30;19.38;;;8.55;;
45792;SDS011;31495;42.740;22.908;2024-01-11T03:41:30;25.20;;;9.05;;
45792;SDS011;31495;42.740;22.908;2024-01-11T03:42:31;20.20;;;8.77;;
45792;SDS011;31495;42.740;22.908;2024-01-11T03:43:30;20.77;;;8.80;;
45792;SDS011;31495;42.740;22.908;2024-01-11T03:44:31;22.35;;;10.07;;
45792;SDS011;31495;42.740;22.908;2024-01-11T03:45:31;27.30;;;13.10;;
45792;SDS011;31495;42.740;22.908;2024-01-11T03:46:31;48.25;;;21.73;;
45792;SDS011;31495;42.740;22.908;2024-01-11T03:47:31;48.97;;;21.85;;
45792;SDS011;31495;42.740;22.908;2024-01-11T03:48:31;49.17;;;21.05;;
45792;SDS011;31495;42.740;22.908;2024-01-11T03:49:31;81.20;;;30.48;;
45792;SDS011;31495;42.740;22.908;2024-01-11T03:50:31;119.80;;;43.30;;
45792;SDS011;31495;42.740;22.908;2024-01-11T03:51:31;101.60;;;38.33;;
45792;SDS011;31495;42.740;22.908;2024-01-11T03:52:31;96.00;;;36.75;;
45792;SDS011;31495;42.740;22.908;2024-01-11T03:53:34;87.30;;;35.30;;
45792;SDS011;31495;42.740;22.908;2024-01-11T03:54:35;82.38;;;33.78;;
45792;SDS011;31495;42.740;22.908;2024-01-11T03:55:34;78.55;;;30.45;;
45792;SDS011;31495;42.740;22.908;2024-01-11T03:56:37;73.40;;;31.00;;
45792;SDS011;31495;42.740;22.908;2024-01-11T03:57:38;69.07;;;29.50;;
45792;SDS011;31495;42.740;22.908;2024-01-11T03:58:38;77.15;;;31.75;;
45792;SDS011;31495;42.740;22.908;2024-01-11T03:59:43;67.53;;;29.92;;
45792;SDS011;31495;42.740;22.908;2024-01-11T04:00:44;68.05;;;31.02;;
45792;SDS011;31495;42.740;22.908;2024-01-11T04:01:43;66.53;;;30.73;;
45792;SDS011;31495;42.740;22.908;2024-01-11T04:02:43;78.45;;;31.45;;
45792;SDS011;31495;42.740;22.908;2024-01-11T04:03:43;72.05;;;33.10;;
45792;SDS011;31495;42.740;22.908;2024-01-11T04:04:42;83.55;;;34.17;;
45792;SDS011;31495;42.740;22.908;2024-01-11T04:05:42;86.93;;;33.92;;
45792;SDS011;31495;42.740;22.908;2024-01-11T04:06:41;64.50;;;27.73;;
45792;SDS011;31495;42.740;22.908;2024-01-11T04:07:41;60.00;;;27.55;;
45792;SDS011;31495;42.740;22.908;2024-01-11T04:08:41;57.30;;;22.38;;
45792;SDS011;31495;42.740;22.908;2024-01-11T04:09:40;42.75;;;17.67;;
45792;SDS011;31495;42.740;22.908;2024-01-11T04:10:39;37.15;;;17.08;;
45792;SDS011;31495;42.740;22.908;2024-01-11T04:11:39;30.95;;;13.48;;
45792;SDS011;31495;42.740;22.908;2024-01-11T04:12:38;24.90;;;11.98;;
45792;SDS011;31495;42.740;22.908;2024-01-11T04:13:38;32.05;;;13.38;;
45792;SDS011;31495;42.740;22.908;2024-01-11T04:14:38;32.22;;;12.43;;
45792;SDS011;31495;42.740;22.908;2024-01-11T04:15:41;24.27;;;10.35;;
45792;SDS011;31495;42.740;22.908;2024-01-11T04:16:42;19.48;;;9.60;;
45792;SDS011;31495;42.740;22.908;2024-01-11T04:17:41;16.60;;;7.78;;
45792;SDS011;31495;42.740;22.908;2024-01-11T04:18:41;19.95;;;7.80;;
45792;SDS011;31495;42.740;22.908;2024-01-11T04:19:40;18.35;;;7.70;;
45792;SDS011;31495;42.740;22.908;2024-01-11T04:20:40;17.35;;;7.88;;
45792;SDS011;31495;42.740;22.908;2024-01-11T04:21:39;20.30;;;8.82;;
45792;SDS011;31495;42.740;22.908;2024-01-11T04:22:38;24.13;;;10.02;;
45792;SDS011;31495;42.740;22.908;2024-01-11T04:23:38;38.65;;;16.58;;
45792;SDS011;31495;42.740;22.908;2024-01-11T04:24:37;42.25;;;19.63;;
45792;SDS011;31495;42.740;22.908;2024-01-11T04:25:37;41.40;;;18.33;;
45792;SDS011;31495;42.740;22.908;2024-01-11T04:26:36;45.10;;;19.58;;
45792;SDS011;31495;42.740;22.908;2024-01-11T04:27:36;35.50;;;18.38;;
45792;SDS011;31495;42.740;22.908;2024-01-11T04:28:36;36.42;;;17.92;;
45792;SDS011;31495;42.740;22.908;2024-01-11T04:29:36;29.42;;;16.52;;
45792;SDS011;31495;42.740;22.908;2024-01-11T04:30:35;30.70;;;13.60;;
45792;SDS011;31495;42.740;22.908;2024-01-11T04:31:35;25.63;;;12.98;;
45792;SDS011;31495;42.740;22.908;2024-01-11T04:32:35;29.13;;;14.18;;
45792;SDS011;31495;42.740;22.908;2024-01-11T04:33:35;32.20;;;14.07;;
45792;SDS011;31495;42.740;22.908;2024-01-11T04:34:35;28.02;;;14.20;;
45792;SDS011;31495;42.740;22.908;2024-01-11T04:35:35;38.95;;;15.38;;
45792;SDS011;31495;42.740;22.908;2024-01-11T04:36:37;25.58;;;11.88;;
45792;SDS011;31495;42.740;22.908;2024-01-11T04:37:37;32.30;;;13.93;;
45792;SDS011;31495;42.740;22.908;2024-01-11T04:38:36;25.67;;;12.13;;
45792;SDS011;31495;42.740;22.908;2024-01-11T04:39:36;33.80;;;12.45;;
45792;SDS011;31495;42.740;22.908;2024-01-11T04:40:36;33.47;;;14.27;;
45792;SDS011;31495;42.740;22.908;2024-01-11T04:41:35;29.27;;;13.27;;
45792;SDS011;31495;42.740;22.908;2024-01-11T04:42:38;27.33;;;11.45;;
45792;SDS011;31495;42.740;22.908;2024-01-11T04:43:41;27.55;;;11.88;;
45792;SDS011;31495;42.740;22.908;2024-01-11T04:44:42;26.13;;;12.50;;
45792;SDS011;31495;42.740;22.908;2024-01-11T04:45:41;27.00;;;12.60;;
45792;SDS011;31495;42.740;22.908;2024-01-11T04:46:41;22.55;;;10.90;;
45792;SDS011;31495;42.740;22.908;2024-01-11T04:47:40;36.97;;;11.88;;
45792;SDS011;31495;42.740;22.908;2024-01-11T04:48:40;20.10;;;9.93;;
45792;SDS011;31495;42.740;22.908;2024-01-11T04:49:40;18.88;;;10.43;;
45792;SDS011;31495;42.740;22.908;2024-01-11T04:50:39;32.28;;;13.75;;
45792;SDS011;31495;42.740;22.908;2024-01-11T04:51:39;34.38;;;15.25;;
45792;SDS011;31495;42.740;22.908;2024-01-11T04:52:38;33.33;;;17.08;;
45792;SDS011;31495;42.740;22.908;2024-01-11T04:53:38;37.30;;;16.83;;
45792;SDS011;31495;42.740;22.908;2024-01-11T04:54:40;32.15;;;15.27;;
45792;SDS011;31495;42.740;22.908;2024-01-11T04:55:40;33.30;;;16.40;;
45792;SDS011;31495;42.740;22.908;2024-01-11T04:56:40;41.72;;;17.02;;
45792;SDS011;31495;42.740;22.908;2024-01-11T04:57:39;41.97;;;17.42;;
45792;SDS011;31495;42.740;22.908;2024-01-11T04:58:39;36.90;;;17.58;;
45792;SDS011;31495;42.740;22.908;2024-01-11T04:59:39;39.20;;;14.88;;
45792;SDS011;31495;42.740;22.908;2024-01-11T05:00:39;31.48;;;13.23;;
45792;SDS011;31495;42.740;22.908;2024-01-11T05:01:38;32.30;;;13.48;;
45792;SDS011;31495;42.740;22.908;2024-01-11T05:02:39;38.83;;;13.25;;
45792;SDS011;31495;42.740;22.908;2024-01-11T05:03:38;31.50;;;13.23;;
45792;SDS011;31495;42.740;22.908;2024-01-11T05:04:37;32.13;;;13.15;;
45792;SDS011;31495;42.740;22.908;2024-01-11T05:05:37;28.25;;;11.60;;
45792;SDS011;31495;42.740;22.908;2024-01-11T05:06:37;30.27;;;13.20;;
45792;SDS011;31495;42.740;22.908;2024-01-11T05:07:37;40.15;;;15.88;;
45792;SDS011;31495;42.740;22.908;2024-01-11T05:08:38;48.13;;;21.27;;
45792;SDS011;31495;42.740;22.908;2024-01-11T05:09:38;46.05;;;23.17;;
45792;SDS011;31495;42.740;22.908;2024-01-11T05:10:38;50.35;;;22.05;;
45792;SDS011;31495;42.740;22.908;2024-01-11T05:11:38;47.78;;;22.33;;
45792;SDS011;31495;42.740;22.908;2024-01-11T05:12:38;52.28;;;23.35;;
45792;SDS011;31495;42.740;22.908;2024-01-11T05:13:38;61.42;;;27.10;;
45792;SDS011;31495;42.740;22.908;2024-01-11T05:14:38;83.55;;;33.50;;
45792;SDS011;31495;42.740;22.908;2024-01-11T05:15:38;77.70;;;32.92;;
45792;SDS011;31495;42.740;22.908;2024-01-11T05:16:39;66.78;;;30.65;;
45792;SDS011;31495;42.740;22.908;2024-01-11T05:17:39;68.07;;;31.23;;
45792;SDS011;31495;42.740;22.908;2024-01-11T05:18:39;62.13;;;24.98;;
45792;SDS011;31495;42.740;22.908;2024-01-11T05:19:39;49.42;;;23.08;;
45792;SDS011;31495;42.740;22.908;2024-01-11T05:20:39;65.22;;;27.27;;
45792;SDS011;31495;42.740;22.908;2024-01-11T05:21:39;86.57;;;36.25;;
45792;SDS011;31495;42.740;22.908;2024-01-11T05:22:39;109.82;;;45.38;;
45792;SDS011;31495;42.740;22.908;2024-01-11T05:23:42;137.48;;;56.58;;
45792;SDS011;31495;42.740;22.908;2024-01-11T05:24:42;111.40;;;45.13;;
45792;SDS011;31495;42.740;22.908;2024-01-11T05:25:41;86.78;;;38.85;;
45792;SDS011;31495;42.740;22.908;2024-01-11T05:26:40;80.47;;;36.00;;
45792;SDS011;31495;42.740;22.908;2024-01-11T05:27:40;85.15;;;31.80;;
45792;SDS011;31495;42.740;22.908;2024-01-11T05:28:40;77.43;;;34.83;;
45792;SDS011;31495;42.740;22.908;2024-01-11T05:29:39;57.90;;;28.17;;
45792;SDS011;31495;42.740;22.908;2024-01-11T05:30:39;43.45;;;18.38;;
45792;SDS011;31495;42.740;22.908;2024-01-11T05:31:39;38.65;;;17.77;;
45792;SDS011;31495;42.740;22.908;2024-01-11T05:32:40;32.70;;;11.98;;
45792;SDS011;31495;42.740;22.908;2024-01-11T05:33:40;28.60;;;12.98;;
45792;SDS011;31495;42.740;22.908;2024-01-11T05:34:40;25.50;;;12.48;;
45792;SDS011;31495;42.740;22.908;2024-01-11T05:35:42;26.13;;;11.20;;
45792;SDS011;31495;42.740;22.908;2024-01-11T05:36:42;23.35;;;10.65;;
45792;SDS011;31495;42.740;22.908;2024-01-11T05:37:41;21.92;;;10.00;;
45792;SDS011;31495;42.740;22.908;2024-01-11T05:38:41;14.85;;;8.93;;
45792;SDS011;31495;42.740;22.908;2024-01-11T05:39:40;20.48;;;10.98;;
45792;SDS011;31495;42.740;22.908;2024-01-11T05:40:40;19.23;;;9.98;;
45792;SDS011;31495;42.740;22.908;2024-01-11T05:41:43;22.67;;;12.00;;
45792;SDS011;31495;42.740;22.908;2024-01-11T05:42:44;60.85;;;24.60;;
45792;SDS011;31495;42.740;22.908;2024-01-11T05:43:43;101.82;;;39.63;;
45792;SDS011;31495;42.740;22.908;2024-01-11T05:44:43;75.80;;;30.27;;
45792;SDS011;31495;42.740;22.908;2024-01-11T05:45:43;54.00;;;24.05;;
45792;SDS011;31495;42.740;22.908;2024-01-11T05:46:42;52.90;;;24.10;;
45792;SDS011;31495;42.740;22.908;2024-01-11T05:47:42;44.17;;;22.38;;
45792;SDS011;31495;42.740;22.908;2024-01-11T05:48:43;51.17;;;22.25;;
45792;SDS011;31495;42.740;22.908;2024-01-11T05:49:42;47.90;;;21.75;;
45792;SDS011;31495;42.740;22.908;2024-01-11T05:50:42;46.70;;;21.02;;
45792;SDS011;31495;42.740;22.908;2024-01-11T05:51:45;41.38;;;21.38;;
45792;SDS011;31495;42.740;22.908;2024-01-11T05:52:44;50.53;;;21.77;;